Terminal Aerodrome Forecast
Issued by NWS Pocatello, ID

Home | Current Version | Previous Version | Text Only | Print | Product List | Glossary On
Versions: 1 2 3 4 5 6 7 8 9 10 11 12 13 14 15 16
621
FTUS45 KPIH 221900 AAA
TAFIDA
TAF AMD
KIDA 221900Z 2219/2318 23014KT P6SM VCSH SCT020 BKN070 OVC100
     FM222300 VRB05KT P6SM VCTS SCT030CB BKN090
     FM230500 35006KT P6SM VCSH SCT030 BKN100
     FM231000 33008KT P6SM SCT050 BKN100=

USA.gov is the U.S. government's official web portal to all federal, state and local government web resources and services.